sensor_id;sensor_type;location;lat;lon;timestamp;temperature;humidity
19000;DHT22;9633;50.980;13.850;2023-09-19T00:01:24;16.10;99.90
19000;DHT22;9633;50.980;13.850;2023-09-19T00:02:58;16.10;99.90
19000;DHT22;9633;50.980;13.850;2023-09-19T00:04:31;16.10;99.90
19000;DHT22;9633;50.980;13.850;2023-09-19T00:06:05;16.10;99.90
19000;DHT22;9633;50.980;13.850;2023-09-19T00:07:39;16.10;99.90
19000;DHT22;9633;50.980;13.850;2023-09-19T00:09:12;16.10;99.90
19000;DHT22;9633;50.980;13.850;2023-09-19T00:10:45;16.10;99.90
19000;DHT22;9633;50.980;13.850;2023-09-19T00:12:18;16.20;99.90
19000;DHT22;9633;50.980;13.850;2023-09-19T00:13:52;16.10;99.90
19000;DHT22;9633;50.980;13.850;2023-09-19T00:15:26;16.10;99.90
19000;DHT22;9633;50.980;13.850;2023-09-19T00:17:00;16.00;99.90
19000;DHT22;9633;50.980;13.850;2023-09-19T00:18:38;16.00;99.90
19000;DHT22;9633;50.980;13.850;2023-09-19T00:20:11;16.00;99.90
19000;DHT22;9633;50.980;13.850;2023-09-19T00:21:44;16.00;99.90
19000;DHT22;9633;50.980;13.850;2023-09-19T00:23:17;16.10;99.90
19000;DHT22;9633;50.980;13.850;2023-09-19T00:24:52;16.10;99.90
19000;DHT22;9633;50.980;13.850;2023-09-19T00:26:25;16.10;99.90
19000;DHT22;9633;50.980;13.850;2023-09-19T00:28:03;16.10;99.90
19000;DHT22;9633;50.980;13.850;2023-09-19T00:29:37;16.20;99.90
19000;DHT22;9633;50.980;13.850;2023-09-19T00:31:11;16.20;99.90
19000;DHT22;9633;50.980;13.850;2023-09-19T00:32:44;16.30;99.90
19000;DHT22;9633;50.980;13.850;2023-09-19T00:34:19;16.30;99.90
19000;DHT22;9633;50.980;13.850;2023-09-19T00:35:54;16.20;99.90
19000;DHT22;9633;50.980;13.850;2023-09-19T00:37:27;16.30;99.90
19000;DHT22;9633;50.980;13.850;2023-09-19T00:38:59;16.20;99.90
19000;DHT22;9633;50.980;13.850;2023-09-19T00:40:32;16.20;99.90
19000;DHT22;9633;50.980;13.850;2023-09-19T00:42:05;16.20;99.90
19000;DHT22;9633;50.980;13.850;2023-09-19T00:43:40;16.10;99.90
19000;DHT22;9633;50.980;13.850;2023-09-19T00:45:15;16.10;99.90
19000;DHT22;9633;50.980;13.850;2023-09-19T00:46:49;16.10;99.90
19000;DHT22;9633;50.980;13.850;2023-09-19T00:48:23;16.10;99.90
19000;DHT22;9633;50.980;13.850;2023-09-19T00:50:01;16.10;99.90
19000;DHT22;9633;50.980;13.850;2023-09-19T00:51:34;16.20;99.90
19000;DHT22;9633;50.980;13.850;2023-09-19T00:53:09;16.20;99.90
19000;DHT22;9633;50.980;13.850;2023-09-19T00:54:42;16.20;99.90
19000;DHT22;9633;50.980;13.850;2023-09-19T00:56:15;16.30;99.90
19000;DHT22;9633;50.980;13.850;2023-09-19T00:57:52;16.20;99.90
19000;DHT22;9633;50.980;13.850;2023-09-19T00:59:24;16.20;99.90
19000;DHT22;9633;50.980;13.850;2023-09-19T01:01:00;16.20;99.90
19000;DHT22;9633;50.980;13.850;2023-09-19T01:02:33;16.20;99.90
19000;DHT22;9633;50.980;13.850;2023-09-19T01:04:05;16.20;99.90
19000;DHT22;9633;50.980;13.850;2023-09-19T01:05:39;16.10;99.90
19000;DHT22;9633;50.980;13.850;2023-09-19T01:07:11;16.10;99.90
19000;DHT22;9633;50.980;13.850;2023-09-19T01:08:46;16.10;99.90
19000;DHT22;9633;50.980;13.850;2023-09-19T01:10:21;16.10;99.90
19000;DHT22;9633;50.980;13.850;2023-09-19T01:12:00;16.10;99.90
19000;DHT22;9633;50.980;13.850;2023-09-19T01:13:43;16.10;99.90
19000;DHT22;9633;50.980;13.850;2023-09-19T01:15:28;16.20;99.90
19000;DHT22;9633;50.980;13.850;2023-09-19T01:17:13;16.20;99.90
19000;DHT22;9633;50.980;13.850;2023-09-19T01:18:55;16.10;99.90
19000;DHT22;9633;50.980;13.850;2023-09-19T01:20:39;16.10;99.90
19000;DHT22;9633;50.980;13.850;2023-09-19T01:22:24;16.10;99.90
19000;DHT22;9633;50.980;13.850;2023-09-19T01:24:34;16.00;99.90
19000;DHT22;9633;50.980;13.850;2023-09-19T01:26:21;15.90;99.90
19000;DHT22;9633;50.980;13.850;2023-09-19T01:28:08;15.90;99.90
19000;DHT22;9633;50.980;13.850;2023-09-19T01:29:49;16.00;99.90
19000;DHT22;9633;50.980;13.850;2023-09-19T01:31:24;16.00;99.90
19000;DHT22;9633;50.980;13.850;2023-09-19T01:33:02;16.10;99.90
19000;DHT22;9633;50.980;13.850;2023-09-19T01:34:45;16.10;99.90
19000;DHT22;9633;50.980;13.850;2023-09-19T01:36:20;16.10;99.90
19000;DHT22;9633;50.980;13.850;2023-09-19T01:37:55;16.10;99.90
19000;DHT22;9633;50.980;13.850;2023-09-19T01:39:28;16.10;99.90
19000;DHT22;9633;50.980;13.850;2023-09-19T01:41:06;16.10;99.90
19000;DHT22;9633;50.980;13.850;2023-09-19T01:42:43;16.10;99.90
19000;DHT22;9633;50.980;13.850;2023-09-19T01:44:24;16.10;99.90
19000;DHT22;9633;50.980;13.850;2023-09-19T01:46:05;16.10;99.90
19000;DHT22;9633;50.980;13.850;2023-09-19T01:47:49;16.00;99.90
19000;DHT22;9633;50.980;13.850;2023-09-19T01:49:31;16.10;99.90
19000;DHT22;9633;50.980;13.850;2023-09-19T01:51:06;16.10;99.90
19000;DHT22;9633;50.980;13.850;2023-09-19T01:52:47;16.10;99.90
19000;DHT22;9633;50.980;13.850;2023-09-19T01:54:26;16.10;99.90
19000;DHT22;9633;50.980;13.850;2023-09-19T01:56:00;16.10;99.90
19000;DHT22;9633;50.980;13.850;2023-09-19T01:57:37;15.90;99.90
19000;DHT22;9633;50.980;13.850;2023-09-19T01:59:17;16.10;99.90
19000;DHT22;9633;50.980;13.850;2023-09-19T02:00:55;16.10;99.90
19000;DHT22;9633;50.980;13.850;2023-09-19T02:02:33;16.10;99.90
19000;DHT22;9633;50.980;13.850;2023-09-19T02:04:08;16.00;99.90
19000;DHT22;9633;50.980;13.850;2023-09-19T02:05:48;15.90;99.90
19000;DHT22;9633;50.980;13.850;2023-09-19T02:07:22;16.00;99.90
19000;DHT22;9633;50.980;13.850;2023-09-19T02:08:55;15.90;99.90
19000;DHT22;9633;50.980;13.850;2023-09-19T02:10:28;15.90;99.90
19000;DHT22;9633;50.980;13.850;2023-09-19T02:12:03;16.00;99.90
19000;DHT22;9633;50.980;13.850;2023-09-19T02:13:36;16.00;99.90
19000;DHT22;9633;50.980;13.850;2023-09-19T02:15:11;16.00;99.90
19000;DHT22;9633;50.980;13.850;2023-09-19T02:16:43;16.00;99.90
19000;DHT22;9633;50.980;13.850;2023-09-19T02:18:17;16.00;99.90
19000;DHT22;9633;50.980;13.850;2023-09-19T02:19:51;16.10;99.90
19000;DHT22;9633;50.980;13.850;2023-09-19T02:21:25;16.00;99.90
19000;DHT22;9633;50.980;13.850;2023-09-19T02:23:01;16.10;99.90
19000;DHT22;9633;50.980;13.850;2023-09-19T02:24:35;16.00;99.90
19000;DHT22;9633;50.980;13.850;2023-09-19T02:26:07;16.00;99.90
19000;DHT22;9633;50.980;13.850;2023-09-19T02:27:41;16.00;99.90
19000;DHT22;9633;50.980;13.850;2023-09-19T02:29:13;16.00;99.90
19000;DHT22;9633;50.980;13.850;2023-09-19T02:30:47;16.00;99.90
19000;DHT22;9633;50.980;13.850;2023-09-19T02:32:20;16.00;99.90
19000;DHT22;9633;50.980;13.850;2023-09-19T02:33:55;16.00;99.90
19000;DHT22;9633;50.980;13.850;2023-09-19T02:35:29;15.90;99.90
19000;DHT22;9633;50.980;13.850;2023-09-19T02:37:07;16.00;99.90
19000;DHT22;9633;50.980;13.850;2023-09-19T02:38:40;16.00;99.90
19000;DHT22;9633;50.980;13.850;2023-09-19T02:40:13;16.00;99.90
19000;DHT22;9633;50.980;13.850;2023-09-19T02:41:51;16.00;99.90
19000;DHT22;9633;50.980;13.850;2023-09-19T02:43:25;16.00;99.90
19000;DHT22;9633;50.980;13.850;2023-09-19T02:44:58;16.00;99.90
19000;DHT22;9633;50.980;13.850;2023-09-19T02:46:31;16.00;99.90
19000;DHT22;9633;50.980;13.850;2023-09-19T02:48:05;16.00;99.90
19000;DHT22;9633;50.980;13.850;2023-09-19T02:49:39;16.00;99.90
19000;DHT22;9633;50.980;13.850;2023-09-19T02:51:14;16.00;99.90
19000;DHT22;9633;50.980;13.850;2023-09-19T02:52:47;15.90;99.90
19000;DHT22;9633;50.980;13.850;2023-09-19T02:54:21;15.90;99.90
19000;DHT22;9633;50.980;13.850;2023-09-19T02:55:55;15.90;99.90
19000;DHT22;9633;50.980;13.850;2023-09-19T02:57:28;15.90;99.90
19000;DHT22;9633;50.980;13.850;2023-09-19T02:59:01;15.90;99.90
19000;DHT22;9633;50.980;13.850;2023-09-19T03:00:35;15.90;99.90
19000;DHT22;9633;50.980;13.850;2023-09-19T03:02:07;15.90;99.90
19000;DHT22;9633;50.980;13.850;2023-09-19T03:03:41;15.90;99.90
19000;DHT22;9633;50.980;13.850;2023-09-19T03:05:14;15.90;99.90
19000;DHT22;9633;50.980;13.850;2023-09-19T03:06:50;15.90;99.90
19000;DHT22;9633;50.980;13.850;2023-09-19T03:08:23;15.80;99.90
19000;DHT22;9633;50.980;13.850;2023-09-19T03:09:56;15.80;99.90
19000;DHT22;9633;50.980;13.850;2023-09-19T03:11:29;15.80;99.90
19000;DHT22;9633;50.980;13.850;2023-09-19T03:13:03;16.10;99.90
19000;DHT22;9633;50.980;13.850;2023-09-19T03:14:35;15.80;99.90
19000;DHT22;9633;50.980;13.850;2023-09-19T03:16:09;15.80;99.90
19000;DHT22;9633;50.980;13.850;2023-09-19T03:17:43;15.80;99.90
19000;DHT22;9633;50.980;13.850;2023-09-19T03:19:17;15.80;99.90
19000;DHT22;9633;50.980;13.850;2023-09-19T03:20:53;15.70;99.90
19000;DHT22;9633;50.980;13.850;2023-09-19T03:22:29;15.70;99.90
19000;DHT22;9633;50.980;13.850;2023-09-19T03:24:01;15.70;99.90
19000;DHT22;9633;50.980;13.850;2023-09-19T03:25:35;15.80;99.90
19000;DHT22;9633;50.980;13.850;2023-09-19T03:27:09;15.70;99.90
19000;DHT22;9633;50.980;13.850;2023-09-19T03:28:43;15.80;99.90
19000;DHT22;9633;50.980;13.850;2023-09-19T03:30:18;15.70;99.90
19000;DHT22;9633;50.980;13.850;2023-09-19T03:31:50;15.70;99.90
19000;DHT22;9633;50.980;13.850;2023-09-19T03:33:25;15.70;99.90
19000;DHT22;9633;50.980;13.850;2023-09-19T03:34:58;15.60;99.90
19000;DHT22;9633;50.980;13.850;2023-09-19T03:36:31;15.60;99.90
19000;DHT22;9633;50.980;13.850;2023-09-19T03:38:08;15.70;99.90
19000;DHT22;9633;50.980;13.850;2023-09-19T03:39:41;15.60;99.90
19000;DHT22;9633;50.980;13.850;2023-09-19T03:41:14;15.60;99.90
19000;DHT22;9633;50.980;13.850;2023-09-19T03:42:49;15.50;99.90
19000;DHT22;9633;50.980;13.850;2023-09-19T03:44:22;15.50;99.90
19000;DHT22;9633;50.980;13.850;2023-09-19T03:45:54;15.60;99.90
19000;DHT22;9633;50.980;13.850;2023-09-19T03:47:28;15.60;99.90
19000;DHT22;9633;50.980;13.850;2023-09-19T03:49:03;15.60;99.90
19000;DHT22;9633;50.980;13.850;2023-09-19T03:50:37;15.60;99.90
19000;DHT22;9633;50.980;13.850;2023-09-19T03:52:09;15.50;99.90
19000;DHT22;9633;50.980;13.850;2023-09-19T03:53:44;15.50;99.90
19000;DHT22;9633;50.980;13.850;2023-09-19T03:55:17;15.50;99.90
19000;DHT22;9633;50.980;13.850;2023-09-19T03:56:50;15.60;99.90
19000;DHT22;9633;50.980;13.850;2023-09-19T03:58:23;15.60;99.90
19000;DHT22;9633;50.980;13.850;2023-09-19T03:59:55;15.50;99.90
19000;DHT22;9633;50.980;13.850;2023-09-19T04:01:28;15.50;99.90
19000;DHT22;9633;50.980;13.850;2023-09-19T04:03:04;15.40;99.90
19000;DHT22;9633;50.980;13.850;2023-09-19T04:04:38;15.40;99.90
19000;DHT22;9633;50.980;13.850;2023-09-19T04:06:12;15.40;99.90
19000;DHT22;9633;50.980;13.850;2023-09-19T04:07:44;15.30;99.90
19000;DHT22;9633;50.980;13.850;2023-09-19T04:09:19;15.40;99.90
19000;DHT22;9633;50.980;13.850;2023-09-19T04:10:53;15.40;99.90
19000;DHT22;9633;50.980;13.850;2023-09-19T04:12:25;15.50;99.90
19000;DHT22;9633;50.980;13.850;2023-09-19T04:13:59;15.50;99.90
19000;DHT22;9633;50.980;13.850;2023-09-19T04:15:31;15.40;99.90
19000;DHT22;9633;50.980;13.850;2023-09-19T04:17:04;15.40;99.90
19000;DHT22;9633;50.980;13.850;2023-09-19T04:18:41;15.40;99.90
19000;DHT22;9633;50.980;13.850;2023-09-19T04:20:14;15.40;99.90
19000;DHT22;9633;50.980;13.850;2023-09-19T04:21:46;15.40;99.90
19000;DHT22;9633;50.980;13.850;2023-09-19T04:23:19;15.40;99.90
19000;DHT22;9633;50.980;13.850;2023-09-19T04:24:54;15.40;99.90
19000;DHT22;9633;50.980;13.850;2023-09-19T04:26:27;15.30;99.90
19000;DHT22;9633;50.980;13.850;2023-09-19T04:28:00;15.30;99.90
19000;DHT22;9633;50.980;13.850;2023-09-19T04:29:32;15.40;99.90
19000;DHT22;9633;50.980;13.850;2023-09-19T04:31:06;15.30;99.90
19000;DHT22;9633;50.980;13.850;2023-09-19T04:32:41;15.30;99.90
19000;DHT22;9633;50.980;13.850;2023-09-19T04:34:13;15.30;99.90
19000;DHT22;9633;50.980;13.850;2023-09-19T04:35:49;15.30;99.90
19000;DHT22;9633;50.980;13.850;2023-09-19T04:37:22;15.40;99.90
19000;DHT22;9633;50.980;13.850;2023-09-19T04:38:55;15.30;99.90
19000;DHT22;9633;50.980;13.850;2023-09-19T04:40:30;15.30;99.90
19000;DHT22;9633;50.980;13.850;2023-09-19T04:42:06;15.30;99.90
19000;DHT22;9633;50.980;13.850;2023-09-19T04:43:38;15.30;99.90
19000;DHT22;9633;50.980;13.850;2023-09-19T04:45:12;15.30;99.90
19000;DHT22;9633;50.980;13.850;2023-09-19T04:46:44;15.30;99.90
19000;DHT22;9633;50.980;13.850;2023-09-19T04:48:18;15.40;99.90
19000;DHT22;9633;50.980;13.850;2023-09-19T04:49:51;15.30;99.90
19000;DHT22;9633;50.980;13.850;2023-09-19T04:51:23;15.30;99.90
19000;DHT22;9633;50.980;13.850;2023-09-19T04:52:57;15.40;99.90
19000;DHT22;9633;50.980;13.850;2023-09-19T04:54:29;15.40;99.90
19000;DHT22;9633;50.980;13.850;2023-09-19T04:56:04;15.50;99.90
19000;DHT22;9633;50.980;13.850;2023-09-19T04:57:39;15.50;99.90
19000;DHT22;9633;50.980;13.850;2023-09-19T04:59:12;15.70;99.90
19000;DHT22;9633;50.980;13.850;2023-09-19T05:00:46;15.90;99.90
19000;DHT22;9633;50.980;13.850;2023-09-19T05:02:20;16.20;99.90
19000;DHT22;9633;50.980;13.850;2023-09-19T05:03:52;16.50;99.90
19000;DHT22;9633;50.980;13.850;2023-09-19T05:05:26;16.70;99.90
19000;DHT22;9633;50.980;13.850;2023-09-19T05:06:58;16.90;99.90
19000;DHT22;9633;50.980;13.850;2023-09-19T05:08:33;17.00;99.90
19000;DHT22;9633;50.980;13.850;2023-09-19T05:10:06;17.00;99.90
19000;DHT22;9633;50.980;13.850;2023-09-19T05:11:41;17.10;99.90
19000;DHT22;9633;50.980;13.850;2023-09-19T05:13:14;17.20;99.90
19000;DHT22;9633;50.980;13.850;2023-09-19T05:14:46;17.20;99.90
19000;DHT22;9633;50.980;13.850;2023-09-19T05:16:19;17.20;99.90
19000;DHT22;9633;50.980;13.850;2023-09-19T05:17:53;17.20;99.90
19000;DHT22;9633;50.980;13.850;2023-09-19T05:19:29;17.20;99.90
19000;DHT22;9633;50.980;13.850;2023-09-19T05:21:02;17.10;99.90
19000;DHT22;9633;50.980;13.850;2023-09-19T05:22:35;17.20;99.90
19000;DHT22;9633;50.980;13.850;2023-09-19T05:24:08;17.10;99.90
19000;DHT22;9633;50.980;13.850;2023-09-19T05:25:43;17.10;99.90
19000;DHT22;9633;50.980;13.850;2023-09-19T05:27:16;17.10;99.90
19000;DHT22;9633;50.980;13.850;2023-09-19T05:28:50;17.10;99.90
19000;DHT22;9633;50.980;13.850;2023-09-19T05:30:25;17.10;99.90
19000;DHT22;9633;50.980;13.850;2023-09-19T05:31:59;17.10;99.90
19000;DHT22;9633;50.980;13.850;2023-09-19T05:33:32;17.10;99.90
19000;DHT22;9633;50.980;13.850;2023-09-19T05:35:05;17.10;99.90
19000;DHT22;9633;50.980;13.850;2023-09-19T05:36:41;17.20;99.90
19000;DHT22;9633;50.980;13.850;2023-09-19T05:38:13;17.20;99.90
19000;DHT22;9633;50.980;13.850;2023-09-19T05:39:51;17.30;99.90
19000;DHT22;9633;50.980;13.850;2023-09-19T05:41:23;17.30;99.90
19000;DHT22;9633;50.980;13.850;2023-09-19T05:42:57;17.30;99.90
19000;DHT22;9633;50.980;13.850;2023-09-19T05:44:30;17.40;99.90
19000;DHT22;9633;50.980;13.850;2023-09-19T05:46:05;17.40;99.90
19000;DHT22;9633;50.980;13.850;2023-09-19T05:47:37;17.50;99.90
19000;DHT22;9633;50.980;13.850;2023-09-19T05:49:12;17.50;99.90
19000;DHT22;9633;50.980;13.850;2023-09-19T05:50:45;17.60;99.90
19000;DHT22;9633;50.980;13.850;2023-09-19T05:52:19;17.70;99.90
19000;DHT22;9633;50.980;13.850;2023-09-19T05:53:54;17.70;99.90
19000;DHT22;9633;50.980;13.850;2023-09-19T05:55:26;17.70;99.90
19000;DHT22;9633;50.980;13.850;2023-09-19T05:57:00;17.80;99.90
19000;DHT22;9633;50.980;13.850;2023-09-19T05:58:35;17.90;99.90
19000;DHT22;9633;50.980;13.850;2023-09-19T06:00:08;17.90;99.90
19000;DHT22;9633;50.980;13.850;2023-09-19T06:01:45;18.00;99.90
19000;DHT22;9633;50.980;13.850;2023-09-19T06:03:19;18.10;99.90
19000;DHT22;9633;50.980;13.850;2023-09-19T06:04:52;18.10;99.90
19000;DHT22;9633;50.980;13.850;2023-09-19T06:06:25;18.20;99.90
19000;DHT22;9633;50.980;13.850;2023-09-19T06:07:58;18.20;99.90
19000;DHT22;9633;50.980;13.850;2023-09-19T06:09:32;18.20;99.90
19000;DHT22;9633;50.980;13.850;2023-09-19T06:11:06;18.30;99.90
19000;DHT22;9633;50.980;13.850;2023-09-19T06:12:39;18.40;99.90
19000;DHT22;9633;50.980;13.850;2023-09-19T06:14:14;18.50;99.90
19000;DHT22;9633;50.980;13.850;2023-09-19T06:15:49;18.50;99.90
19000;DHT22;9633;50.980;13.850;2023-09-19T06:17:22;18.60;99.90
19000;DHT22;9633;50.980;13.850;2023-09-19T06:18:54;18.60;99.90
19000;DHT22;9633;50.980;13.850;2023-09-19T06:20:28;18.70;99.90
19000;DHT22;9633;50.980;13.850;2023-09-19T06:22:01;18.80;99.90
19000;DHT22;9633;50.980;13.850;2023-09-19T06:23:35;18.80;99.90
19000;DHT22;9633;50.980;13.850;2023-09-19T06:25:08;18.90;99.90
19000;DHT22;9633;50.980;13.850;2023-09-19T06:26:43;18.90;99.90
19000;DHT22;9633;50.980;13.850;2023-09-19T06:28:16;19.00;99.90
19000;DHT22;9633;50.980;13.850;2023-09-19T06:29:56;19.00;99.90
19000;DHT22;9633;50.980;13.850;2023-09-19T06:31:28;19.00;99.90
19000;DHT22;9633;50.980;13.850;2023-09-19T06:33:03;19.00;99.90
19000;DHT22;9633;50.980;13.850;2023-09-19T06:34:35;19.10;99.90
19000;DHT22;9633;50.980;13.850;2023-09-19T06:36:10;19.10;99.90
19000;DHT22;9633;50.980;13.850;2023-09-19T06:37:43;19.10;99.90
19000;DHT22;9633;50.980;13.850;2023-09-19T06:39:16;19.10;99.90
19000;DHT22;9633;50.980;13.850;2023-09-19T06:40:49;19.10;99.90
19000;DHT22;9633;50.980;13.850;2023-09-19T06:42:21;19.30;99.90
19000;DHT22;9633;50.980;13.850;2023-09-19T06:43:58;19.30;99.90
19000;DHT22;9633;50.980;13.850;2023-09-19T06:45:31;19.40;99.90
19000;DHT22;9633;50.980;13.850;2023-09-19T06:47:05;19.40;99.90
19000;DHT22;9633;50.980;13.850;2023-09-19T06:48:38;19.40;99.90
19000;DHT22;9633;50.980;13.850;2023-09-19T06:50:11;19.50;99.90
19000;DHT22;9633;50.980;13.850;2023-09-19T06:51:46;19.60;99.90
19000;DHT22;9633;50.980;13.850;2023-09-19T06:53:22;20.00;98.00
19000;DHT22;9633;50.980;13.850;2023-09-19T06:54:55;20.40;72.50
19000;DHT22;9633;50.980;13.850;2023-09-19T06:56:29;20.70;46.70
19000;DHT22;9633;50.980;13.850;2023-09-19T06:58:01;21.10;31.90
19000;DHT22;9633;50.980;13.850;2023-09-19T06:59:34;21.30;25.50
19000;DHT22;9633;50.980;13.850;2023-09-19T07:01:09;21.70;40.90
19000;DHT22;9633;50.980;13.850;2023-09-19T07:02:42;22.00;1.00
19000;DHT22;9633;50.980;13.850;2023-09-19T07:04:15;22.40;1.00
19000;DHT22;9633;50.980;13.850;2023-09-19T07:05:49;22.90;1.00
19000;DHT22;9633;50.980;13.850;2023-09-19T07:07:21;23.30;1.00
19000;DHT22;9633;50.980;13.850;2023-09-19T07:08:54;23.00;1.00
19000;DHT22;9633;50.980;13.850;2023-09-19T07:10:27;22.90;1.00
19000;DHT22;9633;50.980;13.850;2023-09-19T07:12:00;23.10;1.00
19000;DHT22;9633;50.980;13.850;2023-09-19T07:13:37;23.80;1.00
19000;DHT22;9633;50.980;13.850;2023-09-19T07:15:11;24.50;1.00
19000;DHT22;9633;50.980;13.850;2023-09-19T07:16:44;24.80;1.00
19000;DHT22;9633;50.980;13.850;2023-09-19T07:18:19;24.50;1.00
19000;DHT22;9633;50.980;13.850;2023-09-19T07:19:52;24.90;1.00
19000;DHT22;9633;50.980;13.850;2023-09-19T07:21:25;24.80;1.00
19000;DHT22;9633;50.980;13.850;2023-09-19T07:22:58;24.80;1.00
19000;DHT22;9633;50.980;13.850;2023-09-19T07:24:32;24.30;1.00
19000;DHT22;9633;50.980;13.850;2023-09-19T07:26:05;23.90;1.00
19000;DHT22;9633;50.980;13.850;2023-09-19T07:27:37;24.20;1.00
19000;DHT22;9633;50.980;13.850;2023-09-19T07:29:10;24.00;1.00
19000;DHT22;9633;50.980;13.850;2023-09-19T07:30:43;22.60;1.00
19000;DHT22;9633;50.980;13.850;2023-09-19T07:32:17;21.80;1.00
19000;DHT22;9633;50.980;13.850;2023-09-19T07:33:50;21.50;1.00
19000;DHT22;9633;50.980;13.850;2023-09-19T07:35:23;21.30;1.00
19000;DHT22;9633;50.980;13.850;2023-09-19T07:36:55;20.90;1.00
19000;DHT22;9633;50.980;13.850;2023-09-19T07:38:29;20.70;1.00
19000;DHT22;9633;50.980;13.850;2023-09-19T07:40:01;20.60;1.00
19000;DHT22;9633;50.980;13.850;2023-09-19T07:41:38;20.40;1.00
19000;DHT22;9633;50.980;13.850;2023-09-19T07:43:11;20.30;1.00
19000;DHT22;9633;50.980;13.850;2023-09-19T07:44:44;20.30;1.00
19000;DHT22;9633;50.980;13.850;2023-09-19T07:46:19;20.40;1.00
19000;DHT22;9633;50.980;13.850;2023-09-19T07:47:54;20.30;1.00
19000;DHT22;9633;50.980;13.850;2023-09-19T07:49:27;20.40;1.00
19000;DHT22;9633;50.980;13.850;2023-09-19T07:51:04;20.50;1.00
19000;DHT22;9633;50.980;13.850;2023-09-19T07:52:36;20.40;1.00
19000;DHT22;9633;50.980;13.850;2023-09-19T07:54:11;20.20;1.00
19000;DHT22;9633;50.980;13.850;2023-09-19T07:55:46;20.10;1.00
19000;DHT22;9633;50.980;13.850;2023-09-19T07:57:20;20.00;1.00
19000;DHT22;9633;50.980;13.850;2023-09-19T07:58:53;19.70;1.00
19000;DHT22;9633;50.980;13.850;2023-09-19T08:00:26;19.60;1.00
19000;DHT22;9633;50.980;13.850;2023-09-19T08:02:00;20.30;1.00
19000;DHT22;9633;50.980;13.850;2023-09-19T08:03:34;21.10;1.00
19000;DHT22;9633;50.980;13.850;2023-09-19T08:05:13;21.50;1.00
19000;DHT22;9633;50.980;13.850;2023-09-19T08:06:48;22.00;1.00
19000;DHT22;9633;50.980;13.850;2023-09-19T08:08:24;22.70;1.00
19000;DHT22;9633;50.980;13.850;2023-09-19T08:09:58;23.10;1.00
19000;DHT22;9633;50.980;13.850;2023-09-19T08:11:30;23.40;1.00
19000;DHT22;9633;50.980;13.850;2023-09-19T08:13:04;23.60;1.00
19000;DHT22;9633;50.980;13.850;2023-09-19T08:14:38;23.60;1.00
19000;DHT22;9633;50.980;13.850;2023-09-19T08:16:13;23.20;1.00
19000;DHT22;9633;50.980;13.850;2023-09-19T08:17:47;22.90;1.00
19000;DHT22;9633;50.980;13.850;2023-09-19T08:19:23;23.10;1.00
19000;DHT22;9633;50.980;13.850;2023-09-19T08:21:00;23.40;1.00
19000;DHT22;9633;50.980;13.850;2023-09-19T08:22:33;23.60;1.00
19000;DHT22;9633;50.980;13.850;2023-09-19T08:24:07;23.10;1.00
19000;DHT22;9633;50.980;13.850;2023-09-19T08:25:41;23.00;1.00
19000;DHT22;9633;50.980;13.850;2023-09-19T08:27:13;22.50;1.00
19000;DHT22;9633;50.980;13.850;2023-09-19T08:28:47;22.50;1.00
19000;DHT22;9633;50.980;13.850;2023-09-19T08:30:21;22.80;1.00
19000;DHT22;9633;50.980;13.850;2023-09-19T08:31:57;22.90;1.00
19000;DHT22;9633;50.980;13.850;2023-09-19T08:33:31;23.00;1.00
19000;DHT22;9633;50.980;13.850;2023-09-19T08:35:06;23.30;1.00
19000;DHT22;9633;50.980;13.850;2023-09-19T08:36:41;23.20;1.00
19000;DHT22;9633;50.980;13.850;2023-09-19T08:38:15;23.60;1.00
19000;DHT22;9633;50.980;13.850;2023-09-19T08:39:48;23.90;1.00
19000;DHT22;9633;50.980;13.850;2023-09-19T08:41:21;23.70;1.00
19000;DHT22;9633;50.980;13.850;2023-09-19T08:42:55;22.90;1.00
19000;DHT22;9633;50.980;13.850;2023-09-19T08:44:28;23.30;1.00
19000;DHT22;9633;50.980;13.850;2023-09-19T08:46:09;23.90;1.00
19000;DHT22;9633;50.980;13.850;2023-09-19T08:47:46;25.00;1.00
19000;DHT22;9633;50.980;13.850;2023-09-19T08:49:27;24.30;1.00
19000;DHT22;9633;50.980;13.850;2023-09-19T08:51:07;23.90;1.00
19000;DHT22;9633;50.980;13.850;2023-09-19T08:52:43;22.80;1.00
19000;DHT22;9633;50.980;13.850;2023-09-19T08:54:23;22.10;1.00
19000;DHT22;9633;50.980;13.850;2023-09-19T08:55:59;21.90;1.00
19000;DHT22;9633;50.980;13.850;2023-09-19T08:57:34;21.70;1.00
19000;DHT22;9633;50.980;13.850;2023-09-19T08:59:11;21.70;1.00
19000;DHT22;9633;50.980;13.850;2023-09-19T09:00:47;21.60;1.00
19000;DHT22;9633;50.980;13.850;2023-09-19T09:02:22;21.50;1.00
19000;DHT22;9633;50.980;13.850;2023-09-19T09:03:57;21.60;1.00
19000;DHT22;9633;50.980;13.850;2023-09-19T09:05:31;21.50;1.00
19000;DHT22;9633;50.980;13.850;2023-09-19T09:07:10;21.60;1.00
19000;DHT22;9633;50.980;13.850;2023-09-19T09:08:44;21.50;1.00
19000;DHT22;9633;50.980;13.850;2023-09-19T09:10:16;21.40;1.00
19000;DHT22;9633;50.980;13.850;2023-09-19T09:11:50;21.50;1.00
19000;DHT22;9633;50.980;13.850;2023-09-19T09:13:25;22.10;1.00
19000;DHT22;9633;50.980;13.850;2023-09-19T09:14:58;22.80;1.00
19000;DHT22;9633;50.980;13.850;2023-09-19T09:16:31;23.50;1.00
19000;DHT22;9633;50.980;13.850;2023-09-19T09:18:05;23.80;1.00
19000;DHT22;9633;50.980;13.850;2023-09-19T09:19:37;23.60;1.00
19000;DHT22;9633;50.980;13.850;2023-09-19T09:21:10;23.70;1.00
19000;DHT22;9633;50.980;13.850;2023-09-19T09:22:52;24.00;1.00
19000;DHT22;9633;50.980;13.850;2023-09-19T09:24:27;24.20;1.00
19000;DHT22;9633;50.980;13.850;2023-09-19T09:26:00;25.00;1.00
19000;DHT22;9633;50.980;13.850;2023-09-19T09:27:37;24.30;1.00
19000;DHT22;9633;50.980;13.850;2023-09-19T09:29:12;24.10;1.00
19000;DHT22;9633;50.980;13.850;2023-09-19T09:30:51;24.10;1.00
19000;DHT22;9633;50.980;13.850;2023-09-19T09:32:25;23.60;1.00
19000;DHT22;9633;50.980;13.850;2023-09-19T09:33:58;23.40;1.00
19000;DHT22;9633;50.980;13.850;2023-09-19T09:35:30;23.30;1.00
19000;DHT22;9633;50.980;13.850;2023-09-19T09:37:04;23.20;1.00
19000;DHT22;9633;50.980;13.850;2023-09-19T09:38:45;23.00;1.00
19000;DHT22;9633;50.980;13.850;2023-09-19T09:40:20;23.40;1.00
19000;DHT22;9633;50.980;13.850;2023-09-19T09:42:08;23.70;1.00
19000;DHT22;9633;50.980;13.850;2023-09-19T09:43:42;23.70;1.00
19000;DHT22;9633;50.980;13.850;2023-09-19T09:45:19;23.00;1.00
19000;DHT22;9633;50.980;13.850;2023-09-19T09:47:00;22.80;1.00
19000;DHT22;9633;50.980;13.850;2023-09-19T09:48:55;22.20;1.00
19000;DHT22;9633;50.980;13.850;2023-09-19T09:50:47;21.90;1.00
19000;DHT22;9633;50.980;13.850;2023-09-19T09:52:28;21.90;1.00
19000;DHT22;9633;50.980;13.850;2023-09-19T09:54:11;21.70;1.00
19000;DHT22;9633;50.980;13.850;2023-09-19T09:56:00;21.70;1.00
19000;DHT22;9633;50.980;13.850;2023-09-19T09:57:34;21.70;1.00
19000;DHT22;9633;50.980;13.850;2023-09-19T09:59:07;21.80;1.00
19000;DHT22;9633;50.980;13.850;2023-09-19T10:00:52;21.70;1.00
19000;DHT22;9633;50.980;13.850;2023-09-19T10:02:28;21.70;1.00